createdAt,value
2018-04-08T00:00:47.281Z,27.37
2018-04-08T00:03:14.868Z,29.27
2018-04-08T00:05:42.474Z,29.50
2018-04-08T00:08:10.033Z,31.30
2018-04-08T00:10:37.594Z,28.53
2018-04-08T00:13:05.206Z,23.00
2018-04-08T00:15:32.788Z,29.27
2018-04-08T00:18:00.353Z,25.23
2018-04-08T00:20:27.955Z,25.53
2018-04-08T00:22:55.553Z,24.83
2018-04-08T00:25:23.167Z,29.17
2018-04-08T00:27:50.783Z,25.27
2018-04-08T00:30:18.338Z,25.77
2018-04-08T00:32:45.903Z,24.10
2018-04-08T00:35:13.497Z,25.90
2018-04-08T00:37:41.117Z,24.83
2018-04-08T00:40:08.675Z,27.87
2018-04-08T00:42:36.258Z,24.70
2018-04-08T00:45:03.869Z,30.67
2018-04-08T00:47:31.430Z,29.30
2018-04-08T00:49:59.812Z,30.03
2018-04-08T00:52:27.384Z,26.33
2018-04-08T00:54:54.950Z,26.57
2018-04-08T00:57:22.554Z,25.70
2018-04-08T00:59:50.153Z,25.60
2018-04-08T01:02:17.754Z,28.20
2018-04-08T01:04:45.362Z,27.17
2018-04-08T01:07:13.721Z,29.37
2018-04-08T01:09:41.330Z,25.97
2018-04-08T01:12:08.895Z,29.87
2018-04-08T01:14:36.502Z,28.50
2018-04-08T01:17:04.061Z,25.33
2018-04-08T01:19:31.627Z,25.57
2018-04-08T01:21:59.245Z,27.30
2018-04-08T01:24:26.805Z,27.07
2018-04-08T01:26:54.424Z,27.50
2018-04-08T01:29:22.766Z,25.90
2018-04-08T01:31:50.336Z,26.77
2018-04-08T01:34:17.939Z,26.57
2018-04-08T01:36:45.506Z,25.67
2018-04-08T01:39:13.196Z,27.20
2018-04-08T01:41:40.788Z,24.37
2018-04-08T01:44:08.388Z,26.93
2018-04-08T01:46:36.758Z,26.93
2018-04-08T01:49:05.153Z,27.50
2018-04-08T01:51:32.753Z,24.30
2018-04-08T01:54:00.313Z,27.63
2018-04-08T01:56:27.921Z,24.13
2018-04-08T01:58:56.247Z,28.00
2018-04-08T02:01:23.810Z,25.97
2018-04-08T02:03:51.414Z,26.20
2018-04-08T02:06:18.984Z,26.13
2018-04-08T02:08:47.352Z,25.57
2018-04-08T02:11:15.723Z,28.13
2018-04-08T02:13:43.323Z,27.23
2018-04-08T02:16:10.925Z,26.97
2018-04-08T02:21:12.457Z,33.40
2018-04-08T02:23:40.015Z,28.03
2018-04-08T02:26:07.637Z,30.20
2018-04-08T02:28:35.193Z,28.77
2018-04-08T02:31:02.801Z,30.90
2018-04-08T02:33:30.363Z,31.60
2018-04-08T02:35:57.993Z,29.17
2018-04-08T02:38:26.318Z,25.47
2018-04-08T02:40:53.933Z,28.33
2018-04-08T02:43:21.534Z,25.60
2018-04-08T02:45:49.169Z,30.97
2018-04-08T02:48:16.737Z,25.17
2018-04-08T02:50:44.346Z,25.13
2018-04-08T02:53:11.911Z,26.83
2018-04-08T02:55:39.495Z,28.20
2018-04-08T02:58:07.110Z,26.67
2018-04-08T03:00:34.682Z,24.47
2018-04-08T03:03:02.243Z,27.83
2018-04-08T03:05:29.836Z,27.23
2018-04-08T03:07:57.422Z,26.20
2018-04-08T03:10:25.086Z,28.93
2018-04-08T03:12:52.650Z,23.87
2018-04-08T03:15:20.260Z,27.37
2018-04-08T03:17:47.832Z,28.10
2018-04-08T03:20:15.446Z,26.17
2018-04-08T03:22:43.102Z,29.80
2018-04-08T03:25:10.690Z,26.47
2018-04-08T03:27:38.295Z,27.50
2018-04-08T03:30:06.675Z,24.93
2018-04-08T03:32:35.022Z,24.23
2018-04-08T03:35:02.629Z,26.27
2018-04-08T03:37:30.208Z,24.63
2018-04-08T03:39:57.817Z,27.47
2018-04-08T03:42:25.383Z,25.43
2018-04-08T03:44:52.957Z,24.67
2018-04-08T03:47:21.334Z,27.27
2018-04-08T03:49:48.947Z,27.83
2018-04-08T03:52:16.529Z,24.33
2018-04-08T03:54:44.093Z,21.57
2018-04-08T03:57:11.703Z,25.83
2018-04-08T03:59:39.271Z,26.57
2018-04-08T04:02:06.865Z,27.97
2018-04-08T04:04:34.545Z,29.03
2018-04-08T04:07:02.164Z,25.93
2018-04-08T04:09:29.733Z,25.73
2018-04-08T04:11:57.306Z,25.20
2018-04-08T04:14:25.684Z,27.30
2018-04-08T04:16:53.315Z,27.23
2018-04-08T04:19:32.762Z,24.67
2018-04-08T04:22:12.111Z,28.73
2018-04-08T04:24:51.402Z,28.07
2018-04-08T04:27:19.772Z,28.87
2018-04-08T04:29:47.359Z,27.93
2018-04-08T04:32:14.971Z,27.43
2018-04-08T04:34:42.544Z,27.13
2018-04-08T04:37:10.145Z,27.40
2018-04-08T04:39:38.476Z,27.60
2018-04-08T04:42:06.082Z,29.43
2018-04-08T04:44:33.659Z,27.67
2018-04-08T04:47:01.302Z,27.63
2018-04-08T04:49:28.901Z,27.63
2018-04-08T04:51:56.466Z,25.87
2018-04-08T04:54:24.074Z,28.43
2018-04-08T04:56:52.403Z,25.30
2018-04-08T04:59:19.969Z,29.50
2018-04-08T05:01:47.596Z,29.87
2018-04-08T05:04:15.167Z,26.77
2018-04-08T05:06:42.734Z,28.87
2018-04-08T05:09:10.343Z,25.30
2018-04-08T05:11:37.931Z,28.37
2018-04-08T05:14:06.309Z,26.47
2018-04-08T05:16:34.641Z,27.23
2018-04-08T05:19:02.207Z,25.60
2018-04-08T05:21:29.807Z,24.03
2018-04-08T05:23:58.175Z,27.17
2018-04-08T05:26:25.743Z,26.10
2018-04-08T05:28:54.084Z,26.30
2018-04-08T05:31:21.702Z,24.20
2018-04-08T05:33:49.270Z,29.07
2018-04-08T05:36:16.878Z,24.47
2018-04-08T05:38:44.448Z,27.40
2018-04-08T05:41:12.112Z,26.70
2018-04-08T05:43:39.691Z,26.20
2018-04-08T05:46:07.268Z,25.20
2018-04-08T05:48:35.056Z,27.23
2018-04-08T05:51:02.629Z,28.23
2018-04-08T05:53:30.235Z,29.20
2018-04-08T05:55:58.614Z,26.60
2018-04-08T05:58:26.945Z,24.60
2018-04-08T06:00:54.513Z,25.30
2018-04-08T06:03:22.118Z,27.70
2018-04-08T06:05:50.458Z,20.57
2018-04-08T06:08:18.133Z,24.73
2018-04-08T06:10:45.744Z,24.10
2018-04-08T06:13:13.360Z,25.13
2018-04-08T06:15:40.927Z,26.10
2018-04-08T06:18:08.494Z,24.20
2018-04-08T06:20:36.864Z,23.70
2018-04-08T06:23:04.440Z,25.33
2018-04-08T06:25:32.176Z,24.87
2018-04-08T06:27:59.754Z,23.33
2018-04-08T06:30:27.346Z,26.17
2018-04-08T06:32:54.962Z,24.43
2018-04-08T06:35:22.560Z,24.50
2018-04-08T06:37:50.891Z,24.77
2018-04-08T06:40:18.508Z,22.43
2018-04-08T06:42:46.122Z,22.50
2018-04-08T06:45:13.686Z,24.07
2018-04-08T06:47:41.295Z,23.70
2018-04-08T06:50:08.859Z,21.60
2018-04-08T06:52:36.460Z,22.37
2018-04-08T06:55:04.025Z,22.50
2018-04-08T06:57:31.662Z,23.63
2018-04-08T06:59:59.232Z,21.80
2018-04-08T07:02:26.829Z,25.33
2018-04-08T07:04:54.438Z,23.17
2018-04-08T07:07:22.006Z,21.97
2018-04-08T07:09:49.774Z,23.57
2018-04-08T07:12:17.363Z,20.50
2018-04-08T07:14:45.003Z,20.73
2018-04-08T07:17:12.579Z,21.03
2018-04-08T07:19:40.161Z,21.60
2018-04-08T07:22:08.538Z,24.27
2018-04-08T07:24:36.138Z,22.30
2018-04-08T07:27:03.757Z,22.10
2018-04-08T07:29:31.334Z,21.83
2018-04-08T07:31:59.731Z,23.03
2018-04-08T07:34:27.299Z,18.90
2018-04-08T07:36:54.914Z,21.43
2018-04-08T07:39:22.542Z,19.60
2018-04-08T07:41:50.116Z,18.63
2018-04-08T07:44:17.729Z,19.60
2018-04-08T07:46:45.558Z,17.97
2018-04-08T07:49:13.130Z,18.23
2018-04-08T07:51:40.700Z,17.87
2018-04-08T07:54:09.092Z,18.10
2018-04-08T07:56:36.673Z,19.30
2018-04-08T07:59:04.295Z,16.93
2018-04-08T08:01:31.876Z,18.50
2018-04-08T08:04:00.250Z,15.27
2018-04-08T08:06:27.860Z,17.37
2018-04-08T08:08:55.486Z,17.23
2018-04-08T08:11:23.059Z,17.90
2018-04-08T08:13:50.688Z,16.37
2018-04-08T08:16:19.023Z,17.30
2018-04-08T08:18:46.636Z,15.03
2018-04-08T08:21:15.011Z,17.53
2018-04-08T08:23:43.374Z,16.67
2018-04-08T08:26:11.022Z,17.90
2018-04-08T08:28:38.598Z,14.37
2018-04-08T08:31:06.218Z,15.57
2018-04-08T08:33:33.818Z,15.43
2018-04-08T08:36:01.424Z,15.47
2018-04-08T08:38:29.042Z,13.03
2018-04-08T08:40:56.608Z,14.23
2018-04-08T08:43:24.220Z,14.73
2018-04-08T08:45:51.790Z,17.93
2018-04-08T08:48:20.164Z,16.30
2018-04-08T08:50:47.779Z,15.27
2018-04-08T08:53:16.155Z,15.00
2018-04-08T08:55:43.730Z,15.63
2018-04-08T08:58:11.354Z,14.87
2018-04-08T09:00:38.931Z,13.40
2018-04-08T09:03:06.552Z,15.93
2018-04-08T09:05:34.126Z,16.10
2018-04-08T09:08:01.699Z,12.87
2018-04-08T09:10:29.309Z,19.00
2018-04-08T09:12:56.880Z,14.70
2018-04-08T09:15:24.505Z,13.83
2018-04-08T09:17:52.843Z,14.33
2018-04-08T09:23:24.560Z,18.77
2018-04-08T09:25:54.754Z,20.13
2018-04-08T09:28:22.331Z,17.73
2018-04-08T09:30:49.942Z,15.53
2018-04-08T09:33:17.564Z,14.50
2018-04-08T09:35:45.182Z,15.50
2018-04-08T09:38:12.795Z,15.10
2018-04-08T09:40:41.135Z,14.63
2018-04-08T09:43:08.750Z,18.73
2018-04-08T09:45:36.388Z,15.93
2018-04-08T09:48:03.979Z,16.73
2018-04-08T09:50:31.597Z,18.30
2018-04-08T09:52:59.174Z,14.70
2018-04-08T09:55:26.788Z,16.23
2018-04-08T09:58:15.208Z,19.57
2018-04-08T10:00:48.503Z,22.87
2018-04-08T10:03:35.775Z,25.90
2018-04-08T10:06:03.344Z,20.37
2018-04-08T10:08:30.923Z,19.20
2018-04-08T10:10:58.540Z,20.43
2018-04-08T10:13:26.149Z,20.17
2018-04-08T10:15:53.729Z,19.80
2018-04-08T10:18:21.352Z,17.93
2018-04-08T10:20:48.925Z,19.70
2018-04-08T10:23:16.550Z,20.37
2018-04-08T10:25:44.131Z,23.47
2018-04-08T10:28:11.725Z,19.67
2018-04-08T10:30:40.102Z,22.73
2018-04-08T10:33:08.439Z,20.70
2018-04-08T10:35:36.070Z,22.83
2018-04-08T10:38:03.644Z,22.00
2018-04-08T10:40:31.997Z,22.83
2018-04-08T10:42:59.599Z,21.90
2018-04-08T10:45:27.176Z,22.50
2018-04-08T10:47:54.825Z,21.03
2018-04-08T10:50:22.653Z,24.50
2018-04-08T10:52:51.022Z,21.97
2018-04-08T10:55:19.058Z,21.80
2018-04-08T10:57:49.916Z,21.20
2018-04-08T11:00:18.520Z,21.20
2018-04-08T11:02:46.906Z,22.07
2018-04-08T11:05:14.478Z,23.80
2018-04-08T11:07:42.372Z,47.77
2018-04-08T11:10:09.997Z,31.60
2018-04-08T11:12:37.725Z,24.93
2018-04-08T11:15:05.336Z,20.83
2018-04-08T11:17:32.954Z,23.77
2018-04-08T11:20:00.537Z,22.63
2018-04-08T11:22:28.151Z,23.13
2018-04-08T11:24:56.148Z,18.53
2018-04-08T11:27:23.806Z,22.33
2018-04-08T11:29:51.622Z,22.00
2018-04-08T11:32:19.196Z,21.47
2018-04-08T11:34:46.822Z,21.10
2018-04-08T11:37:14.404Z,22.30
2018-04-08T11:39:42.039Z,19.93
2018-04-08T11:42:09.618Z,24.07
2018-04-08T11:44:37.226Z,25.10
2018-04-08T11:47:04.807Z,21.67
2018-04-08T11:49:33.187Z,23.07
2018-04-08T11:52:00.762Z,21.40
2018-04-08T11:54:28.378Z,20.53
2018-04-08T11:56:55.992Z,20.60
2018-04-08T11:59:23.572Z,27.43
2018-04-08T12:01:51.204Z,25.23
2018-04-08T12:04:18.788Z,22.30
2018-04-08T12:06:46.360Z,22.20
2018-04-08T12:09:13.971Z,18.07
2018-04-08T12:11:41.590Z,24.30
2018-04-08T12:14:09.170Z,22.83
2018-04-08T12:16:36.793Z,22.57
2018-04-08T12:19:04.416Z,20.87
2018-04-08T12:21:31.984Z,22.07
2018-04-08T12:24:00.381Z,22.50
2018-04-08T12:26:33.384Z,21.93
2018-04-08T12:29:00.954Z,22.07
2018-04-08T12:31:28.566Z,23.27
2018-04-08T12:33:56.158Z,21.73
2018-04-08T12:36:23.763Z,21.77
2018-04-08T12:38:52.016Z,22.93
2018-04-08T12:41:19.595Z,21.43
2018-04-08T12:43:47.209Z,25.07
2018-04-08T12:46:14.787Z,25.30
2018-04-08T12:48:42.397Z,21.87
2018-04-08T12:51:10.778Z,18.83
2018-04-08T12:53:38.391Z,20.70
2018-04-08T12:56:05.969Z,21.37
2018-04-08T12:58:33.573Z,18.17
2018-04-08T13:01:01.149Z,16.97
2018-04-08T13:03:29.551Z,20.83
2018-04-08T13:05:57.931Z,19.40
2018-04-08T13:08:25.498Z,17.47
2018-04-08T13:10:53.110Z,21.03
2018-04-08T13:13:20.945Z,19.30
2018-04-08T13:15:49.846Z,18.37
2018-04-08T13:18:17.431Z,15.73
2018-04-08T13:20:45.017Z,18.90
2018-04-08T13:23:12.622Z,16.27
2018-04-08T13:25:40.195Z,16.67
2018-04-08T13:28:07.806Z,18.10
2018-04-08T13:30:36.280Z,17.77
2018-04-08T13:33:06.369Z,16.17
2018-04-08T13:35:34.291Z,18.93
2018-04-08T13:38:02.327Z,20.20
2018-04-08T13:40:31.273Z,18.07
2018-04-08T13:42:58.901Z,20.47
2018-04-08T13:45:26.480Z,21.20
2018-04-08T13:47:54.055Z,21.87
2018-04-08T13:50:21.672Z,20.37
2018-04-08T13:52:50.009Z,17.57
2018-04-08T13:55:17.643Z,18.53
2018-04-08T13:57:45.288Z,20.17
2018-04-08T14:00:12.884Z,21.23
2018-04-08T14:02:41.232Z,21.00
2018-04-08T14:05:08.863Z,18.70
2018-04-08T14:07:36.435Z,22.37
2018-04-08T14:10:04.024Z,16.73
2018-04-08T14:12:31.644Z,21.13
2018-04-08T14:14:59.222Z,18.10
2018-04-08T14:17:26.835Z,16.93
2018-04-08T14:19:54.413Z,18.60
2018-04-08T14:22:22.049Z,20.87
2018-04-08T14:24:49.615Z,16.10
2018-04-08T14:27:17.188Z,18.23
2018-04-08T14:29:44.795Z,15.13
2018-04-08T14:32:12.394Z,19.17
2018-04-08T14:34:40.029Z,16.43
2018-04-08T14:37:07.640Z,16.80
2018-04-08T14:39:35.217Z,15.30
2018-04-08T14:42:02.848Z,19.50
2018-04-08T14:44:30.462Z,14.67
2018-04-08T14:46:58.075Z,16.00
2018-04-08T14:49:25.852Z,13.83
2018-04-08T14:51:53.462Z,13.23
2018-04-08T14:54:21.053Z,14.80
2018-04-08T14:56:48.679Z,12.60
2018-04-08T14:59:16.530Z,11.57
2018-04-08T15:01:46.665Z,12.20
2018-04-08T15:04:11.754Z,12.83
2018-04-08T15:06:39.330Z,13.60
2018-04-08T15:09:07.664Z,16.00
2018-04-08T15:11:35.266Z,15.13
2018-04-08T15:14:02.834Z,15.33
2018-04-08T15:16:30.446Z,14.03
2018-04-08T15:18:58.054Z,13.60
2018-04-08T15:21:25.627Z,10.73
2018-04-08T15:23:53.190Z,13.67
2018-04-08T15:26:20.807Z,14.80
2018-04-08T15:28:48.379Z,13.63
2018-04-08T15:31:16.004Z,15.97
2018-04-08T15:33:43.576Z,16.30
2018-04-08T15:36:11.152Z,13.20
2018-04-08T15:38:38.758Z,13.07
2018-04-08T15:41:06.322Z,15.27
2018-04-08T15:43:33.936Z,16.23
2018-04-08T15:46:01.508Z,15.00
2018-04-08T15:48:29.123Z,15.67
2018-04-08T15:50:56.688Z,13.50
2018-04-08T15:53:24.284Z,12.13
2018-04-08T15:55:51.907Z,14.47
2018-04-08T15:58:19.474Z,11.50
2018-04-08T16:00:47.071Z,12.97
2018-04-08T16:03:14.683Z,13.73
2018-04-08T16:05:42.324Z,11.70
2018-04-08T16:08:09.908Z,14.53
2018-04-08T16:10:37.479Z,14.67
2018-04-08T16:13:05.075Z,12.67
2018-04-08T16:15:32.682Z,11.57
2018-04-08T16:18:00.290Z,14.57
2018-04-08T16:20:27.859Z,14.10
2018-04-08T16:22:55.466Z,19.03
2018-04-08T16:25:23.034Z,14.30
2018-04-08T16:27:50.697Z,15.60
2018-04-08T16:30:19.129Z,15.63
2018-04-08T16:32:46.700Z,16.53
2018-04-08T16:35:14.272Z,12.97
2018-04-08T16:37:41.893Z,12.63
2018-04-08T16:40:09.499Z,9.83
2018-04-08T16:42:37.087Z,14.60
2018-04-08T16:45:04.711Z,17.70
2018-04-08T16:47:33.091Z,18.77
2018-04-08T16:50:01.465Z,13.60
2018-04-08T16:52:29.078Z,17.50
2018-04-08T16:54:56.696Z,16.03
2018-04-08T16:57:25.043Z,17.73
2018-04-08T16:59:52.659Z,14.60
2018-04-08T17:02:20.227Z,16.90
2018-04-08T17:04:47.836Z,16.10
2018-04-08T17:07:15.401Z,15.47
2018-04-08T17:09:42.977Z,17.73
2018-04-08T17:12:11.361Z,14.87
2018-04-08T17:14:38.939Z,19.17
2018-04-08T17:17:06.550Z,16.27
2018-04-08T17:19:34.129Z,14.87
2018-04-08T17:22:01.753Z,15.50
2018-04-08T17:24:29.322Z,17.63
2018-04-08T17:26:56.933Z,20.23
2018-04-08T17:29:24.535Z,24.63
2018-04-08T17:31:52.168Z,19.20
2018-04-08T17:34:19.740Z,18.23
2018-04-08T17:36:48.608Z,17.50
2018-04-08T17:39:16.230Z,16.13
2018-04-08T17:41:43.842Z,21.80
2018-04-08T17:44:11.429Z,18.97
2018-04-08T17:46:39.008Z,18.70
2018-04-08T17:49:06.642Z,19.97
2018-04-08T17:51:34.276Z,17.93
2018-04-08T17:54:01.880Z,74.03
2018-04-08T17:56:29.450Z,25.73
2018-04-08T17:58:57.126Z,25.83
2018-04-08T18:01:24.755Z,26.87
2018-04-08T18:03:52.327Z,29.80
2018-04-08T18:06:19.950Z,40.47
2018-04-08T18:08:47.521Z,36.33
2018-04-08T18:11:15.089Z,33.93
2018-04-08T18:13:42.711Z,38.87
2018-04-08T18:16:11.055Z,31.63
2018-04-08T18:18:38.671Z,34.43
2018-04-08T18:21:06.251Z,36.17
2018-04-08T18:23:33.871Z,33.23
2018-04-08T18:26:01.509Z,34.27
2018-04-08T18:28:29.142Z,37.33
2018-04-08T18:30:56.775Z,39.60
2018-04-08T18:33:24.355Z,37.03
2018-04-08T18:35:52.002Z,37.67
2018-04-08T18:38:19.664Z,34.80
2018-04-08T18:40:47.560Z,38.40
2018-04-08T18:43:15.175Z,37.40
2018-04-08T18:45:42.838Z,35.47
2018-04-08T18:48:10.414Z,37.63
2018-04-08T18:50:38.077Z,40.90
2018-04-08T18:53:05.730Z,38.73
2018-04-08T18:55:34.131Z,34.43
2018-04-08T18:58:01.728Z,37.10
2018-04-08T19:00:29.296Z,39.13
2018-04-08T19:02:56.910Z,41.63
2018-04-08T19:05:25.483Z,37.43
2018-04-08T19:07:53.875Z,35.97
2018-04-08T19:10:21.508Z,36.33
2018-04-08T19:12:49.093Z,37.10
2018-04-08T19:15:22.721Z,38.20
2018-04-08T19:17:55.978Z,37.93
2018-04-08T19:20:24.374Z,39.43
2018-04-08T19:22:51.942Z,43.43
2018-04-08T19:25:19.526Z,38.03
2018-04-08T19:27:47.152Z,41.33
2018-04-08T19:30:20.676Z,41.47
2018-04-08T19:32:48.326Z,38.80
2018-04-08T19:35:15.918Z,42.40
2018-04-08T19:37:43.506Z,43.57
2018-04-08T19:40:11.135Z,42.23
2018-04-08T19:42:38.708Z,44.53
2018-04-08T19:45:06.343Z,44.30
2018-04-08T19:47:33.976Z,41.80
2018-04-08T19:50:01.551Z,40.17
2018-04-08T19:52:29.160Z,47.53
2018-04-08T19:54:56.768Z,44.47
2018-04-08T19:57:24.340Z,46.57
2018-04-08T19:59:51.960Z,48.30
2018-04-08T20:02:20.308Z,46.73
2018-04-08T20:04:47.917Z,41.40
2018-04-08T20:07:15.641Z,45.03
2018-04-08T20:09:43.208Z,40.03
2018-04-08T20:12:10.773Z,46.83
2018-04-08T20:14:38.384Z,47.60
2018-04-08T20:17:05.992Z,44.77
2018-04-08T20:19:33.605Z,45.43
2018-04-08T20:22:01.240Z,48.67
2018-04-08T20:24:29.579Z,46.93
2018-04-08T20:26:57.198Z,46.80
2018-04-08T20:29:24.775Z,48.17
2018-04-08T20:31:52.389Z,52.40
2018-04-08T20:34:20.351Z,48.93
2018-04-08T20:36:48.295Z,51.83
2018-04-08T20:39:18.261Z,47.77
2018-04-08T20:41:46.601Z,43.97
2018-04-08T20:44:14.215Z,44.10
2018-04-08T20:46:42.622Z,49.93
2018-04-08T20:49:10.257Z,47.03
2018-04-08T20:51:37.837Z,52.10
2018-04-08T20:54:05.695Z,47.10
2018-04-08T20:56:34.497Z,47.47
2018-04-08T20:59:03.022Z,48.27
2018-04-08T21:01:30.679Z,49.87
2018-04-08T21:03:58.254Z,46.87
2018-04-08T21:06:26.590Z,46.53
2018-04-08T21:08:54.395Z,44.73
2018-04-08T21:11:22.171Z,43.17
2018-04-08T21:13:50.554Z,45.37
2018-04-08T21:16:18.343Z,47.67
2018-04-08T21:18:47.088Z,53.80
2018-04-08T21:21:14.833Z,49.10
2018-04-08T21:23:42.448Z,54.03
2018-04-08T21:26:10.043Z,48.60
2018-04-08T21:28:37.665Z,53.40
2018-04-08T21:31:06.002Z,57.47
2018-04-08T21:33:33.864Z,49.07
2018-04-08T21:36:01.620Z,52.80
2018-04-08T21:38:29.543Z,52.27
2018-04-08T21:40:57.142Z,54.80
2018-04-08T21:43:24.767Z,56.57
2018-04-08T21:45:53.405Z,55.50
2018-04-08T21:48:21.931Z,52.70
2018-04-08T21:50:50.348Z,49.90
2018-04-08T21:53:19.157Z,52.07
2018-04-08T21:55:46.837Z,54.90
2018-04-08T21:58:14.426Z,78.20
2018-04-08T22:00:43.805Z,94.73
2018-04-08T22:03:12.388Z,58.43
2018-04-08T22:05:39.986Z,55.70
2018-04-08T22:08:07.605Z,57.23
2018-04-08T22:10:35.171Z,57.40
2018-04-08T22:13:02.801Z,57.20
2018-04-08T22:15:30.418Z,61.17
2018-04-08T22:17:58.761Z,57.13
2018-04-08T22:20:26.392Z,57.97
2018-04-08T22:22:53.962Z,58.43
2018-04-08T22:25:21.571Z,58.40
2018-04-08T22:27:49.290Z,61.27
2018-04-08T22:30:16.898Z,56.13
2018-04-08T22:32:44.470Z,62.37
2018-04-08T22:35:12.892Z,58.70
2018-04-08T22:37:40.499Z,58.27
2018-04-08T22:40:08.071Z,59.23
2018-04-08T22:42:36.462Z,57.83
2018-04-08T22:45:04.039Z,59.90
2018-04-08T22:47:31.623Z,60.07
2018-04-08T22:49:59.241Z,61.03
2018-04-08T22:52:26.814Z,66.27
2018-04-08T22:54:54.440Z,59.37
2018-04-08T22:57:22.054Z,58.40
2018-04-08T22:59:49.630Z,61.53
2018-04-08T23:02:17.193Z,60.10
2018-04-08T23:04:44.808Z,58.57
2018-04-08T23:07:13.169Z,62.43
2018-04-08T23:09:40.790Z,59.87
2018-04-08T23:12:08.348Z,59.10
2018-04-08T23:14:35.916Z,57.07
2018-04-08T23:17:03.534Z,54.13
2018-04-08T23:19:31.102Z,61.03
2018-04-08T23:21:58.711Z,61.53
2018-04-08T23:24:26.283Z,64.83
2018-04-08T23:26:53.898Z,58.83
2018-04-08T23:29:21.478Z,57.33
2018-04-08T23:31:49.097Z,58.17
2018-04-08T23:34:16.670Z,56.33
2018-04-08T23:36:44.247Z,61.13
2018-04-08T23:39:11.873Z,60.87
2018-04-08T23:41:40.265Z,58.17
2018-04-08T23:44:09.000Z,61.43
2018-04-08T23:46:36.574Z,61.87
2018-04-08T23:49:04.193Z,60.00
2018-04-08T23:51:31.778Z,62.83
2018-04-08T23:53:59.341Z,63.53
2018-04-08T23:56:26.956Z,68.20
2018-04-08T23:58:55.346Z,63.07
